createdAt,value
2018-02-15T00:02:10.473Z,94709.47
2018-02-15T00:04:37.858Z,94737.33
2018-02-15T00:07:05.272Z,94738.30
2018-02-15T00:09:32.623Z,94742.95
2018-02-15T00:12:00.018Z,94722.67
2018-02-15T00:14:27.383Z,94728.67
2018-02-15T00:16:54.799Z,94739.20
2018-02-15T00:19:22.160Z,94748.61
2018-02-15T00:21:49.559Z,94730.13
2018-02-15T00:24:16.915Z,94729.19
2018-02-15T00:26:44.314Z,94746.36
2018-02-15T00:29:11.723Z,94726.25
2018-02-15T00:31:39.143Z,94736.60
2018-02-15T00:34:06.529Z,94678.83
2018-02-15T00:36:33.935Z,94718.13
2018-02-15T00:39:01.362Z,94718.51
2018-02-15T00:41:28.748Z,94737.51
2018-02-15T00:43:56.104Z,94744.52
2018-02-15T00:46:23.513Z,94733.20
2018-02-15T00:48:50.869Z,94744.48
2018-02-15T00:51:18.253Z,94734.36
2018-02-15T00:53:45.738Z,94748.11
2018-02-15T00:56:13.117Z,94738.70
2018-02-15T00:58:40.483Z,94729.13
2018-02-15T01:01:07.850Z,94743.77
2018-02-15T01:03:35.199Z,94723.84
2018-02-15T01:06:02.552Z,94717.83
2018-02-15T01:08:29.946Z,94743.63
2018-02-15T01:10:57.335Z,94717.84
2018-02-15T01:13:24.737Z,94749.26
2018-02-15T01:15:52.101Z,94714.61
2018-02-15T01:18:19.524Z,94689.06
2018-02-15T01:20:46.891Z,94747.17
2018-02-15T01:23:14.279Z,94741.94
2018-02-15T01:25:41.639Z,94681.73
2018-02-15T01:28:09.072Z,94680.41
2018-02-15T01:30:36.444Z,94740.99
2018-02-15T01:33:03.799Z,94723.84
2018-02-15T01:35:31.207Z,94726.13
2018-02-15T01:37:58.565Z,94741.94
2018-02-15T01:40:25.998Z,94718.78
2018-02-15T01:42:53.427Z,94734.23
2018-02-15T01:45:20.795Z,94714.34
2018-02-15T01:47:48.190Z,94726.18
2018-02-15T01:50:15.547Z,94780.23
2018-02-15T01:52:42.952Z,94747.09
2018-02-15T01:55:10.319Z,94753.48
2018-02-15T01:57:37.745Z,94770.81
2018-02-15T02:00:05.154Z,94769.11
2018-02-15T02:02:32.527Z,94761.36
2018-02-15T02:04:59.938Z,94751.00
2018-02-15T02:07:27.335Z,94779.12
2018-02-15T02:09:54.764Z,94785.16
2018-02-15T02:12:22.131Z,94783.84
2018-02-15T02:14:49.487Z,94780.82
2018-02-15T02:17:16.954Z,94784.41
2018-02-15T02:19:44.342Z,94774.43
2018-02-15T02:22:11.794Z,94782.91
2018-02-15T02:24:39.146Z,94784.57
2018-02-15T02:27:06.494Z,94766.13
2018-02-15T02:29:33.882Z,94738.66
2018-02-15T02:32:01.246Z,94784.74
2018-02-15T02:34:28.677Z,94773.37
2018-02-15T02:36:56.052Z,94778.86
2018-02-15T02:39:23.445Z,94780.36
2018-02-15T02:41:50.845Z,94771.49
2018-02-15T02:44:18.219Z,94785.77
2018-02-15T02:46:45.669Z,94755.82
2018-02-15T02:49:13.091Z,94759.83
2018-02-15T02:51:40.442Z,94772.98
2018-02-15T02:54:07.834Z,94778.65
2018-02-15T02:56:35.254Z,94791.22
2018-02-15T02:59:02.641Z,94781.42
2018-02-15T03:01:29.999Z,94758.41
2018-02-15T03:03:57.375Z,94789.64
2018-02-15T03:06:24.751Z,94789.69
2018-02-15T03:08:52.122Z,94765.06
2018-02-15T03:11:19.522Z,94794.92
2018-02-15T03:13:46.955Z,94797.61
2018-02-15T03:16:14.375Z,94777.29
2018-02-15T03:18:41.807Z,94803.61
2018-02-15T03:21:09.176Z,94795.17
2018-02-15T03:23:36.524Z,94799.48
2018-02-15T03:26:03.886Z,94756.80
2018-02-15T03:28:31.343Z,94815.33
2018-02-15T03:30:58.714Z,94817.21
2018-02-15T03:33:26.067Z,94813.20
2018-02-15T03:35:53.428Z,94823.65
2018-02-15T03:38:20.791Z,94827.36
2018-02-15T03:40:48.167Z,94822.33
2018-02-15T03:43:15.643Z,94823.77
2018-02-15T03:45:43.049Z,94824.92
2018-02-15T03:48:10.406Z,94797.09
2018-02-15T03:50:37.796Z,94814.95
2018-02-15T03:53:05.160Z,94827.35
2018-02-15T03:55:32.549Z,94822.66
2018-02-15T03:57:59.940Z,94834.72
2018-02-15T04:00:27.319Z,94844.88
2018-02-15T04:02:54.725Z,94839.41
2018-02-15T04:05:22.112Z,94834.69
2018-02-15T04:07:49.514Z,94829.95
2018-02-15T04:10:16.897Z,94838.98
2018-02-15T04:12:44.320Z,94848.95
2018-02-15T04:15:11.695Z,94826.91
2018-02-15T04:17:39.084Z,94848.94
2018-02-15T04:20:06.483Z,94832.34
2018-02-15T04:22:33.853Z,94836.69
2018-02-15T04:25:01.213Z,94830.05
2018-02-15T04:27:28.626Z,94851.51
2018-02-15T04:29:56.047Z,94857.53
2018-02-15T04:32:23.471Z,94848.14
2018-02-15T04:34:50.924Z,94860.72
2018-02-15T04:37:18.298Z,94846.67
2018-02-15T04:39:45.755Z,94863.07
2018-02-15T04:42:13.240Z,94846.66
2018-02-15T04:44:40.618Z,94860.16
2018-02-15T04:47:07.976Z,94880.33
2018-02-15T04:49:35.367Z,94850.95
2018-02-15T04:52:02.715Z,94868.81
2018-02-15T04:54:30.083Z,94871.11
2018-02-15T04:56:57.476Z,94889.90
2018-02-15T04:59:24.876Z,94868.41
2018-02-15T05:01:52.286Z,94869.56
2018-02-15T05:04:19.643Z,94885.22
2018-02-15T05:06:47.007Z,94854.88
2018-02-15T05:09:14.510Z,94853.38
2018-02-15T05:11:41.924Z,94900.73
2018-02-15T05:14:09.423Z,94897.61
2018-02-15T05:16:36.776Z,94866.87
2018-02-15T05:19:04.134Z,94886.42
2018-02-15T05:21:31.489Z,94865.94
2018-02-15T05:23:58.867Z,94890.22
2018-02-15T05:26:26.298Z,94896.39
2018-02-15T05:28:53.704Z,94913.53
2018-02-15T05:31:21.062Z,94908.09
2018-02-15T05:33:48.443Z,94906.37
2018-02-15T05:36:16.046Z,94901.30
2018-02-15T05:38:43.442Z,94907.13
2018-02-15T05:41:10.913Z,94874.73
2018-02-15T05:43:38.347Z,94900.70
2018-02-15T05:46:05.703Z,94906.28
2018-02-15T05:48:33.100Z,94916.70
2018-02-15T05:51:00.467Z,94915.78
2018-02-15T05:53:27.893Z,94867.42
2018-02-15T05:55:55.260Z,94904.64
2018-02-15T05:58:22.632Z,94912.55
2018-02-15T06:00:50.112Z,94897.88
2018-02-15T06:03:17.473Z,94929.45
2018-02-15T06:05:44.927Z,94911.44
2018-02-15T06:08:12.311Z,94922.28
2018-02-15T06:10:39.776Z,94890.70
2018-02-15T06:13:07.190Z,94937.23
2018-02-15T06:15:34.624Z,94904.18
2018-02-15T06:18:02.002Z,94933.92
2018-02-15T06:20:29.359Z,94879.64
2018-02-15T06:22:56.790Z,94887.98
2018-02-15T06:25:24.193Z,94936.72
2018-02-15T06:27:51.616Z,94937.84
2018-02-15T06:30:19.028Z,94943.19
2018-02-15T06:32:46.504Z,94903.44
2018-02-15T06:35:13.895Z,94922.59
2018-02-15T06:37:41.271Z,94949.77
2018-02-15T06:40:08.668Z,94959.49
2018-02-15T06:42:36.044Z,94925.87
2018-02-15T06:45:03.401Z,94938.34
2018-02-15T06:47:30.783Z,94956.61
2018-02-15T06:49:58.199Z,94942.05
2018-02-15T06:52:25.663Z,94954.23
2018-02-15T06:54:53.163Z,94941.98
2018-02-15T06:57:20.660Z,94960.69
2018-02-15T06:59:48.095Z,94946.42
2018-02-15T07:02:15.492Z,94932.63
2018-02-15T07:04:42.950Z,94935.53
2018-02-15T07:07:10.360Z,94960.27
2018-02-15T07:09:37.904Z,94915.64
2018-02-15T07:12:05.269Z,94951.69
2018-02-15T09:03:05.988Z,95067.90
2018-02-15T09:05:33.415Z,95038.19
2018-02-15T09:08:00.785Z,95049.45
2018-02-15T09:10:28.188Z,95048.67
2018-02-15T09:12:55.604Z,95083.94
2018-02-15T09:15:22.976Z,95058.30
2018-02-15T09:17:50.412Z,95070.80
2018-02-15T09:23:15.154Z,95090.39
2018-02-15T09:25:42.521Z,95069.78
2018-02-15T09:28:09.907Z,95098.30
2018-02-15T09:30:37.420Z,95060.84
2018-02-15T09:33:06.060Z,95039.66
2018-02-15T09:35:33.550Z,95063.03
2018-02-15T09:38:01.042Z,95070.22
2018-02-15T09:40:28.544Z,95026.14
2018-02-15T09:42:55.995Z,95081.02
2018-02-15T09:45:23.468Z,95079.72
2018-02-15T09:47:50.993Z,95078.53
2018-02-15T09:50:18.468Z,95051.46
2018-02-15T09:52:45.969Z,95075.66
2018-02-15T09:55:13.385Z,95076.39
2018-02-15T09:57:40.841Z,94985.98
2018-02-15T10:00:08.550Z,95056.58
2018-02-15T10:02:36.261Z,94992.64
2018-02-15T10:05:03.717Z,95014.67
2018-02-15T10:07:31.149Z,95051.92
2018-02-15T10:09:58.531Z,95041.11
2018-02-15T10:12:25.924Z,94980.39
2018-02-15T10:14:53.309Z,94999.54
2018-02-15T10:17:20.787Z,95044.00
2018-02-15T10:19:48.325Z,95071.55
2018-02-15T10:22:15.839Z,95074.86
2018-02-15T10:24:43.312Z,95065.48
2018-02-15T10:27:10.752Z,95088.71
2018-02-15T10:29:38.171Z,94979.70
2018-02-15T10:32:05.559Z,95031.43
2018-02-15T10:34:32.964Z,95025.70
2018-02-15T10:37:00.426Z,95055.03
2018-02-15T10:39:27.867Z,95051.22
2018-02-15T10:41:55.269Z,95033.86
2018-02-15T10:44:22.766Z,94999.19
2018-02-15T10:46:50.224Z,95023.23
2018-02-15T10:49:17.643Z,95046.22
2018-02-15T10:51:45.084Z,95033.27
2018-02-15T10:54:12.498Z,95038.13
2018-02-15T10:56:39.995Z,95020.74
2018-02-15T10:59:07.468Z,95066.97
2018-02-15T11:01:35.020Z,95046.89
2018-02-15T11:04:02.597Z,95081.47
2018-02-15T11:06:29.988Z,95051.11
2018-02-15T11:08:57.508Z,95081.61
2018-02-15T11:11:25.249Z,95031.87
2018-02-15T11:13:52.677Z,95037.01
2018-02-15T11:16:21.223Z,95057.96
2018-02-15T11:18:48.745Z,95057.89
2018-02-15T11:21:17.122Z,95064.32
2018-02-15T11:23:44.762Z,95049.84
2018-02-15T11:26:12.260Z,94979.80
2018-02-15T11:28:49.671Z,95078.91
2018-02-15T11:31:17.042Z,95042.00
2018-02-15T13:34:54.812Z,95061.66
2018-02-15T13:37:22.438Z,95077.94
2018-02-15T13:39:50.381Z,95018.16
2018-02-15T13:42:18.730Z,95085.59
2018-02-15T13:44:47.401Z,95091.23
2018-02-15T13:47:15.263Z,95050.97
2018-02-15T13:49:43.973Z,95018.16
2018-02-15T13:52:11.972Z,95038.91
2018-02-15T13:54:39.677Z,95096.37
2018-02-15T13:57:07.394Z,95065.22
2018-02-15T13:59:34.861Z,95111.02
2018-02-15T14:02:02.664Z,95090.31
2018-02-15T14:04:30.444Z,95117.17
2018-02-15T14:06:58.615Z,95000.27
2018-02-15T14:09:26.641Z,95099.74
2018-02-15T14:11:54.409Z,95052.42
2018-02-15T14:14:22.658Z,95098.86
2018-02-15T14:16:54.464Z,95131.02
2018-02-15T14:19:23.465Z,95042.23
2018-02-15T14:21:51.967Z,95120.20
2018-02-15T14:24:20.909Z,94988.41
2018-02-15T14:26:49.072Z,95101.47
2018-02-15T14:29:17.053Z,95062.13
2018-02-15T14:31:44.910Z,95089.88
2018-02-15T14:34:12.674Z,95102.78
2018-02-15T14:36:40.097Z,95094.16
2018-02-15T14:39:07.944Z,95001.48
2018-02-15T14:41:35.921Z,95064.94
2018-02-15T14:44:03.357Z,95106.37
2018-02-15T14:46:30.869Z,95114.77
2018-02-15T14:48:58.424Z,94985.92
2018-02-15T14:51:26.212Z,95041.42
2018-02-15T14:53:53.877Z,95043.27
2018-02-15T14:56:21.434Z,95071.72
2018-02-15T14:58:49.123Z,95040.97
2018-02-15T15:01:16.613Z,95117.94
2018-02-15T15:03:44.929Z,95081.97
2018-02-15T15:06:12.416Z,95075.38
2018-02-15T15:08:40.054Z,95109.98
2018-02-15T15:11:07.791Z,95121.42
2018-02-15T15:13:35.399Z,95123.33
2018-02-15T15:16:03.140Z,95127.81
2018-02-15T15:18:30.850Z,95101.34
2018-02-15T15:20:58.283Z,95129.68
2018-02-15T15:23:25.841Z,95133.78
2018-02-15T15:25:53.307Z,95130.92
2018-02-15T15:31:02.057Z,95104.44
2018-02-15T15:33:29.783Z,95134.08
2018-02-15T15:35:57.180Z,95152.83
2018-02-15T15:38:24.647Z,95207.33
2018-02-15T15:40:52.058Z,95158.79
2018-02-15T15:43:19.620Z,95198.52
2018-02-15T15:45:47.007Z,95142.03
2018-02-15T15:48:14.492Z,95141.40
2018-02-15T15:50:41.912Z,95158.84
2018-02-15T15:53:09.390Z,95085.30
2018-02-15T15:55:36.814Z,95226.79
2018-02-15T15:58:04.207Z,95127.27
2018-02-15T16:00:31.601Z,95224.34
2018-02-15T16:02:59.069Z,95219.44
2018-02-15T16:05:26.490Z,95203.80
2018-02-15T16:07:53.889Z,95177.30
2018-02-15T16:10:21.346Z,95234.56
2018-02-15T16:12:48.779Z,95242.63
2018-02-15T16:15:16.226Z,95191.29
2018-02-15T16:17:43.659Z,95237.00
2018-02-15T16:20:11.195Z,95233.09
2018-02-15T16:22:38.574Z,95266.50
2018-02-15T16:25:05.947Z,95252.09
2018-02-15T16:27:33.338Z,95275.11
2018-02-15T16:30:00.759Z,95275.27
2018-02-15T16:32:28.149Z,95267.00
2018-02-15T16:34:55.551Z,95244.63
2018-02-15T16:37:22.974Z,95261.06
2018-02-15T16:39:50.390Z,95242.39
2018-02-15T16:42:17.798Z,95276.31
2018-02-15T16:44:45.171Z,95278.03
2018-02-15T16:47:12.578Z,95279.20
2018-02-15T16:49:39.967Z,95194.06
2018-02-15T16:52:07.418Z,95261.53
2018-02-15T16:54:35.105Z,95315.88
2018-02-15T16:57:02.467Z,95319.16
2018-02-15T16:59:29.836Z,95300.33
2018-02-15T17:01:57.221Z,95324.44
2018-02-15T17:04:24.623Z,95313.85
2018-02-15T17:06:52.032Z,95318.34
2018-02-15T17:09:19.422Z,95301.55
2018-02-15T17:11:46.822Z,95321.22
2018-02-15T17:14:14.209Z,95312.70
2018-02-15T17:16:41.676Z,95330.90
2018-02-15T17:19:09.069Z,95317.08
2018-02-15T17:21:36.452Z,95327.59
2018-02-15T17:24:03.819Z,95315.06
2018-02-15T17:26:31.175Z,95336.77
2018-02-15T17:28:58.537Z,95329.42
2018-02-15T17:31:25.957Z,95333.01
2018-02-15T17:33:53.310Z,95301.66
2018-02-15T17:36:20.672Z,95320.12
2018-02-15T17:38:48.075Z,95351.50
2018-02-15T17:41:15.506Z,95289.95
2018-02-15T17:43:42.864Z,95324.91
2018-02-15T17:46:10.216Z,95333.00
2018-02-15T17:51:10.930Z,95270.73
2018-02-15T17:53:38.308Z,95367.67
2018-02-15T17:56:05.701Z,95280.23
2018-02-15T17:58:33.095Z,95350.36
2018-02-15T18:01:00.451Z,95337.97
2018-02-15T18:03:27.850Z,95352.52
2018-02-15T18:05:55.229Z,95344.36
2018-02-15T18:08:22.583Z,95360.88
2018-02-15T18:10:49.982Z,95316.66
2018-02-15T18:13:17.339Z,95341.70
2018-02-15T18:15:44.699Z,95341.51
2018-02-15T18:18:12.085Z,95356.72
2018-02-15T18:20:39.487Z,95359.67
2018-02-15T18:23:06.874Z,95358.94
2018-02-15T18:25:34.279Z,95338.59
2018-02-15T18:28:01.684Z,95352.58
2018-02-15T18:30:29.086Z,95317.20
2018-02-15T18:32:56.470Z,95366.72
2018-02-15T18:35:23.833Z,95339.36
2018-02-15T18:37:51.199Z,95367.33
2018-02-15T18:40:18.554Z,95366.17
2018-02-15T18:42:45.903Z,95351.85
2018-02-15T18:45:13.254Z,95283.67
2018-02-15T18:47:40.658Z,95347.48
2018-02-15T18:50:08.027Z,95298.45
2018-02-15T18:52:35.388Z,95366.07
2018-02-15T18:55:02.856Z,95344.90
2018-02-15T18:57:30.277Z,95369.44
2018-02-15T18:59:57.622Z,95357.17
2018-02-15T19:02:25.043Z,95375.14
2018-02-15T19:04:52.412Z,95360.42
2018-02-15T19:07:19.778Z,95364.97
2018-02-15T19:09:47.133Z,95355.94
2018-02-15T19:12:14.597Z,95365.39
2018-02-15T19:14:42.009Z,95380.10
2018-02-15T19:17:09.390Z,95368.22
2018-02-15T19:19:36.769Z,95367.10
2018-02-15T19:22:04.184Z,95334.61
2018-02-15T19:24:31.551Z,95326.72
2018-02-15T19:26:58.912Z,95389.26
2018-02-15T19:29:26.308Z,95377.70
2018-02-15T19:31:53.684Z,95358.04
2018-02-15T19:34:21.101Z,95349.18
2018-02-15T19:36:48.458Z,95389.82
2018-02-15T19:39:15.833Z,95353.37
2018-02-15T19:41:43.172Z,95371.68
2018-02-15T19:44:10.522Z,95281.95
2018-02-15T19:46:37.928Z,95318.22
2018-02-15T19:49:05.287Z,95386.64
2018-02-15T19:51:32.683Z,95366.21
2018-02-15T19:54:00.053Z,95379.11
2018-02-15T19:56:27.457Z,95393.84
2018-02-15T19:58:54.812Z,95379.88
2018-02-15T20:01:22.226Z,95351.31
2018-02-15T20:03:49.582Z,95380.41
2018-02-15T20:06:16.985Z,95332.65
2018-02-15T20:08:44.344Z,95411.88
2018-02-15T20:11:11.743Z,95398.03
2018-02-15T20:13:39.143Z,95384.27
2018-02-15T20:16:06.611Z,95396.38
2018-02-15T20:18:33.963Z,95397.87
2018-02-15T20:21:01.364Z,95380.31
2018-02-15T20:23:28.775Z,95371.27
2018-02-15T20:25:56.130Z,95387.14
2018-02-15T20:28:23.485Z,95396.03
2018-02-15T20:30:50.857Z,95423.11
2018-02-15T20:33:18.225Z,95407.61
2018-02-15T20:35:45.707Z,95417.06
2018-02-15T20:38:13.063Z,95415.34
2018-02-15T20:40:40.454Z,95427.67
2018-02-15T20:43:07.812Z,95420.66
2018-02-15T20:45:35.179Z,95420.09
2018-02-15T20:48:02.539Z,95423.70
2018-02-15T20:50:29.913Z,95426.17
2018-02-15T20:52:57.327Z,95430.13
2018-02-15T20:55:24.687Z,95403.44
2018-02-15T20:57:52.126Z,95435.45
2018-02-15T21:00:19.541Z,95429.77
2018-02-15T21:02:46.925Z,95430.34
2018-02-15T21:05:14.385Z,95402.69
2018-02-15T21:07:41.727Z,95388.88
2018-02-15T21:10:09.112Z,95415.54
2018-02-15T21:12:36.475Z,95397.77
2018-02-15T21:15:03.868Z,95372.59
2018-02-15T21:17:31.223Z,95413.84
2018-02-15T21:19:58.622Z,95449.01
2018-02-15T21:22:25.975Z,95419.50
2018-02-15T21:24:53.376Z,95370.70
2018-02-15T21:27:20.776Z,95415.33
2018-02-15T21:29:48.126Z,95417.62
2018-02-15T21:32:15.552Z,95385.25
2018-02-15T21:34:43.006Z,95422.16
2018-02-15T21:37:10.352Z,95444.86
2018-02-15T21:39:37.711Z,95449.20
2018-02-15T21:42:05.111Z,95419.09
2018-02-15T21:44:32.567Z,95434.42
2018-02-15T21:46:59.929Z,95451.84
2018-02-15T21:49:27.335Z,95453.51
2018-02-15T21:51:54.707Z,95455.62
2018-02-15T21:54:22.108Z,95459.03
2018-02-15T21:56:49.524Z,95455.22
2018-02-15T21:59:16.962Z,95434.01
2018-02-15T22:01:44.392Z,95444.06
2018-02-15T22:04:11.804Z,95432.48
2018-02-15T22:06:39.196Z,95465.79
2018-02-15T22:09:06.548Z,95473.92
2018-02-15T22:11:34.043Z,95451.75
2018-02-15T22:14:01.429Z,95476.00
2018-02-15T22:16:28.795Z,95451.20
2018-02-15T22:18:56.189Z,95467.10
2018-02-15T22:21:23.656Z,95464.23
2018-02-15T22:23:51.102Z,95375.60
2018-02-15T22:26:18.453Z,95466.33
2018-02-15T22:28:45.858Z,95438.67
2018-02-15T22:31:13.241Z,95460.05
2018-02-15T22:33:40.648Z,95470.42
2018-02-15T22:36:08.043Z,95475.72
2018-02-15T22:38:35.401Z,95475.91
2018-02-15T22:41:02.806Z,95467.77
2018-02-15T22:43:30.179Z,95482.13
2018-02-15T22:45:57.541Z,95471.12
2018-02-15T22:48:24.954Z,95504.27
2018-02-15T22:50:52.502Z,95490.06
2018-02-15T22:53:19.983Z,95514.98
2018-02-15T22:55:47.354Z,95452.99
2018-02-15T22:58:14.728Z,95517.48
2018-02-15T23:00:42.084Z,95512.33
2018-02-15T23:03:09.535Z,95507.77
2018-02-15T23:05:36.908Z,95502.87
2018-02-15T23:08:04.385Z,95496.78
2018-02-15T23:10:31.747Z,95498.89
2018-02-15T23:12:59.108Z,95505.30
2018-02-15T23:15:26.506Z,95493.72
2018-02-15T23:17:53.868Z,95529.73
2018-02-15T23:20:21.395Z,95508.10
2018-02-15T23:22:48.754Z,95469.45
2018-02-15T23:25:16.121Z,95463.94
2018-02-15T23:27:43.551Z,95490.44
2018-02-15T23:30:10.913Z,95498.45
2018-02-15T23:32:38.291Z,95509.42
2018-02-15T23:35:05.724Z,95516.60
2018-02-15T23:37:33.091Z,95483.44
2018-02-15T23:40:00.452Z,95517.17
2018-02-15T23:42:27.848Z,95496.84
2018-02-15T23:44:55.339Z,95517.55
2018-02-15T23:47:22.853Z,95524.50
2018-02-15T23:49:50.237Z,95482.47
2018-02-15T23:52:17.665Z,95499.28
2018-02-15T23:54:45.109Z,95486.78
2018-02-15T23:57:12.510Z,95525.45
2018-02-15T23:59:39.904Z,95517.34
